createdAt,value
2018-04-08T00:21:40.658Z,56
2018-04-08T00:27:08.028Z,56
2018-04-08T00:32:36.421Z,56
2018-04-08T00:38:04.811Z,56
2018-04-08T00:43:32.198Z,56
2018-04-08T00:48:59.617Z,56
2018-04-08T00:54:27.928Z,56
2018-04-08T00:59:55.323Z,56
2018-04-08T01:05:22.659Z,56
2018-04-08T01:10:51.040Z,57
2018-04-08T01:16:19.446Z,57
2018-04-08T01:21:46.703Z,57
2018-04-08T01:27:15.070Z,57
2018-04-08T01:32:42.729Z,57
2018-04-08T01:38:09.790Z,57
2018-04-08T01:43:37.083Z,57
2018-04-08T01:49:05.414Z,57
2018-04-08T01:54:32.705Z,58
2018-04-08T02:00:00.048Z,58
2018-04-08T02:05:27.331Z,58
2018-04-08T02:16:22.942Z,58
2018-04-08T02:21:50.260Z,59
2018-04-08T02:27:17.480Z,59
2018-04-08T02:32:45.703Z,59
2018-04-08T02:38:12.923Z,59
2018-04-08T02:43:40.205Z,59
2018-04-08T02:49:07.479Z,59
2018-04-08T02:54:34.707Z,59
2018-04-08T03:00:02.939Z,59
2018-04-08T03:05:31.260Z,59
2018-04-08T03:10:58.448Z,60
2018-04-08T03:16:25.680Z,60
2018-04-08T03:21:53.919Z,60
2018-04-08T03:27:21.190Z,60
2018-04-08T03:32:49.375Z,60
2018-04-08T03:38:16.647Z,60
2018-04-08T03:43:44.834Z,60
2018-04-08T03:49:12.065Z,60
2018-04-08T03:54:39.262Z,61
2018-04-08T04:00:06.467Z,61
2018-04-08T04:05:33.853Z,61
2018-04-08T04:11:00.913Z,61
2018-04-08T04:16:28.112Z,61
2018-04-08T04:21:56.305Z,61
2018-04-08T04:27:23.523Z,61
2018-04-08T04:38:17.952Z,62
2018-04-08T04:43:46.189Z,62
2018-04-08T04:49:13.320Z,62
2018-04-08T04:54:41.539Z,62
2018-04-08T05:00:09.726Z,62
2018-04-08T05:05:36.938Z,62
2018-04-08T05:11:04.209Z,62
2018-04-08T05:16:31.567Z,62
2018-04-08T05:21:59.671Z,62
2018-04-08T05:27:26.822Z,63
2018-04-08T05:32:55.070Z,63
2018-04-08T05:38:22.343Z,63
2018-04-08T05:43:49.506Z,63
2018-04-08T05:49:17.767Z,63
2018-04-08T05:54:45.040Z,63
2018-04-08T06:00:13.345Z,63
2018-04-08T06:05:40.721Z,63
2018-04-08T06:11:08.031Z,63
2018-04-08T06:16:36.316Z,63
2018-04-08T06:22:03.693Z,64
2018-04-08T06:27:32.044Z,64
2018-04-08T06:32:59.401Z,64
2018-04-08T06:38:27.821Z,64
2018-04-08T06:43:55.248Z,64
2018-04-08T06:49:22.677Z,64
2018-04-08T06:54:51.093Z,64
2018-04-08T07:00:18.591Z,64
2018-04-08T07:05:47.024Z,64
2018-04-08T07:11:14.492Z,64
2018-04-08T07:16:42.045Z,64
2018-04-08T07:22:09.569Z,64
2018-04-08T07:27:37.060Z,64
2018-04-08T07:33:04.556Z,64
2018-04-08T07:38:33.096Z,64
2018-04-08T07:44:01.727Z,64
2018-04-08T07:49:30.287Z,63
2018-04-08T07:54:58.876Z,63
2018-04-08T08:00:26.545Z,63
2018-04-08T08:05:55.255Z,63
2018-04-08T08:11:23.857Z,63
2018-04-08T08:16:51.578Z,63
2018-04-08T08:22:20.288Z,63
2018-04-08T08:27:48.992Z,63
2018-04-08T08:33:16.771Z,63
2018-04-08T08:38:45.508Z,63
2018-04-08T08:44:14.334Z,63
2018-04-08T08:49:42.116Z,63
2018-04-08T09:00:39.851Z,62
2018-04-08T09:06:07.794Z,62
2018-04-08T09:11:35.631Z,62
2018-04-08T09:17:04.558Z,62
2018-04-08T09:22:32.537Z,61
2018-04-08T09:28:00.579Z,61
2018-04-08T09:33:29.604Z,61
2018-04-08T09:38:57.542Z,61
2018-04-08T09:44:26.645Z,60
2018-04-08T09:49:54.718Z,60
2018-04-08T09:55:22.812Z,60
2018-04-08T10:00:50.953Z,59
2018-04-08T10:06:19.082Z,59
2018-04-08T10:11:47.288Z,59
2018-04-08T10:17:15.524Z,58
2018-04-08T10:22:44.706Z,58
2018-04-08T10:28:13.982Z,58
2018-04-08T10:33:43.304Z,57
2018-04-08T10:39:11.505Z,57
2018-04-08T10:44:40.819Z,57
2018-04-08T10:50:10.215Z,56
2018-04-08T10:55:38.545Z,56
2018-04-08T11:01:07.830Z,56
2018-04-08T11:12:04.620Z,55
2018-04-08T11:17:33.040Z,55
2018-04-08T11:23:02.427Z,54
2018-04-08T11:28:30.880Z,54
2018-04-08T11:34:00.375Z,54
2018-04-08T11:39:29.978Z,53
2018-04-08T11:44:59.380Z,53
2018-04-08T11:50:27.886Z,53
2018-04-08T11:55:57.553Z,52
2018-04-08T12:01:25.993Z,52
2018-04-08T12:06:55.640Z,51
2018-04-08T12:12:25.366Z,51
2018-04-08T12:17:54.199Z,51
2018-04-08T12:23:24.170Z,50
2018-04-08T12:28:54.253Z,49
2018-04-08T12:34:24.336Z,49
2018-04-08T12:39:54.481Z,48
2018-04-08T12:45:23.711Z,47
2018-04-08T12:50:52.928Z,46
2018-04-08T12:56:23.191Z,45
2018-04-08T13:01:52.492Z,44
2018-04-08T13:12:53.261Z,43
2018-04-08T13:18:23.687Z,42
2018-04-08T13:23:54.126Z,41
2018-04-08T13:29:23.633Z,40
2018-04-08T13:34:53.186Z,39
2018-04-08T13:40:23.826Z,39
2018-04-08T13:45:53.656Z,38
2018-04-08T13:51:23.185Z,38
2018-04-08T13:56:54.390Z,37
2018-04-08T14:02:24.689Z,36
2018-04-08T14:07:54.401Z,36
2018-04-08T14:13:24.123Z,36
2018-04-08T14:18:53.933Z,35
2018-04-08T14:24:23.718Z,34
2018-04-08T14:29:54.580Z,34
2018-04-08T14:35:25.512Z,33
2018-04-08T14:40:55.501Z,33
2018-04-08T14:46:25.510Z,34
2018-04-08T14:51:55.449Z,33
2018-04-08T14:57:26.155Z,32
2018-04-08T15:02:57.023Z,31
2018-04-08T15:08:27.577Z,35
2018-04-08T15:13:56.645Z,35
2018-04-08T15:19:25.572Z,35
2018-04-08T15:24:54.135Z,35
2018-04-08T15:30:22.841Z,35
2018-04-08T15:35:52.282Z,35
2018-04-08T15:41:20.805Z,35
2018-04-08T15:46:49.326Z,36
2018-04-08T15:57:47.339Z,36
2018-04-08T16:03:15.869Z,37
2018-04-08T16:08:45.384Z,37
2018-04-08T16:14:13.807Z,37
2018-04-08T16:19:42.281Z,38
2018-04-08T16:25:11.728Z,38
2018-04-08T16:30:41.286Z,39
2018-04-08T16:36:10.592Z,39
2018-04-08T16:41:40.000Z,41
2018-04-08T16:47:08.557Z,42
2018-04-08T16:52:36.784Z,44
2018-04-08T17:03:34.475Z,45
2018-04-08T17:09:03.798Z,46
2018-04-08T17:14:32.110Z,46
2018-04-08T17:20:00.389Z,47
2018-04-08T17:25:29.544Z,48
2018-04-08T17:30:58.805Z,48
2018-04-08T17:36:26.986Z,49
2018-04-08T17:41:55.237Z,49
2018-04-08T17:47:24.382Z,50
2018-04-08T17:52:53.602Z,50
2018-04-08T17:58:22.767Z,50
2018-04-08T18:03:51.830Z,51
2018-04-08T18:09:20.176Z,51
2018-04-08T18:14:49.082Z,51
2018-04-08T18:20:18.435Z,51
2018-04-08T18:25:46.300Z,52
2018-04-08T18:36:44.498Z,52
2018-04-08T18:42:13.538Z,52
2018-04-08T18:47:41.606Z,52
2018-04-08T18:53:10.782Z,53
2018-04-08T18:58:38.724Z,53
2018-04-08T19:04:06.782Z,53
2018-04-08T19:09:35.858Z,53
2018-04-08T19:15:03.896Z,54
2018-04-08T19:20:32.972Z,54
2018-04-08T19:26:01.006Z,54
2018-04-08T19:31:29.996Z,54
2018-04-08T19:36:58.047Z,55
2018-04-08T19:42:27.060Z,55
2018-04-08T19:47:55.088Z,55
2018-04-08T19:53:23.054Z,55
2018-04-08T19:58:51.067Z,55
2018-04-08T20:04:20.149Z,56
2018-04-08T20:09:48.048Z,56
2018-04-08T20:15:17.054Z,56
2018-04-08T20:20:46.141Z,56
2018-04-08T20:26:13.966Z,57
2018-04-08T20:31:42.929Z,57
2018-04-08T20:37:10.907Z,57
2018-04-08T20:42:38.828Z,57
2018-04-08T20:48:07.814Z,58
2018-04-08T20:53:35.745Z,58
2018-04-08T20:59:04.629Z,58
2018-04-08T21:04:33.797Z,58
2018-04-08T21:10:02.890Z,58
2018-04-08T21:15:30.328Z,58
2018-04-08T21:20:59.241Z,59
2018-04-08T21:26:28.160Z,59
2018-04-08T21:31:57.015Z,59
2018-04-08T21:37:25.937Z,59
2018-04-08T21:42:54.074Z,59
2018-04-08T21:48:22.720Z,59
2018-04-08T21:53:51.572Z,60
2018-04-08T21:59:19.492Z,60
2018-04-08T22:04:47.353Z,60
2018-04-08T22:10:16.231Z,60
2018-04-08T22:15:45.181Z,60
2018-04-08T22:21:12.992Z,60
2018-04-08T22:26:41.879Z,61
2018-04-08T22:32:09.758Z,61
2018-04-08T22:37:38.652Z,61
2018-04-08T22:43:07.496Z,61
2018-04-08T22:48:35.337Z,61
2018-04-08T22:54:03.212Z,62
2018-04-08T22:59:32.021Z,62
2018-04-08T23:04:59.908Z,62
2018-04-08T23:10:27.728Z,62
2018-04-08T23:15:55.580Z,62
2018-04-08T23:21:24.429Z,63
2018-04-08T23:26:52.356Z,63
2018-04-08T23:32:21.222Z,63
2018-04-08T23:37:49.970Z,63
2018-04-08T23:43:17.924Z,63
2018-04-08T23:48:45.695Z,63
2018-04-08T23:54:13.550Z,63
2018-04-08T23:59:42.385Z,64
